Terminal Aerodrome Forecast
Issued by NWS

Home | Current Version | Previous Version | Text Only | Print | Product List | Glossary On
Versions: 1 2 3 4 5 6 7 8 9 10 11 12 13
000
FTUS42 KRAH 291120
TAFRWI
TAF
KRWI 291120Z 2912/3012 00000KT P6SM SKC
     FM291500 20008KT P6SM SCT050 SCT200
     FM300700 20006KT P6SM FEW005 BKN200=

USA.gov is the U.S. government's official web portal to all federal, state and local government web resources and services.